createdAt,value
2018-08-13T00:02:02.279Z,19.81
2018-08-13T00:06:56.916Z,19.69
2018-08-13T00:11:51.816Z,19.48
2018-08-13T00:16:46.422Z,19.58
2018-08-13T00:21:41.016Z,19.43
2018-08-13T00:26:35.662Z,19.45
2018-08-13T00:31:30.281Z,19.43
2018-08-13T00:36:24.847Z,19.24
2018-08-13T00:41:19.670Z,19.15
2018-08-13T00:46:14.449Z,19.31
2018-08-13T00:51:09.094Z,19.26
2018-08-13T00:56:03.805Z,19.10
2018-08-13T01:00:58.476Z,18.99
2018-08-13T01:05:53.123Z,19.07
2018-08-13T01:10:47.755Z,18.89
2018-08-13T01:15:42.382Z,18.92
2018-08-13T01:20:37.012Z,18.73
2018-08-13T01:25:31.660Z,18.39
2018-08-13T01:30:26.228Z,18.72
2018-08-13T01:35:20.803Z,18.91
2018-08-13T01:40:15.462Z,18.88
2018-08-13T01:45:12.716Z,18.86
2018-08-13T01:50:11.301Z,18.81
2018-08-13T02:00:16.695Z,18.67
2018-08-13T02:05:11.347Z,18.70
2018-08-13T02:10:07.196Z,18.67
2018-08-13T02:15:01.807Z,18.64
2018-08-13T02:19:56.480Z,18.50
2018-08-13T02:24:51.084Z,18.56
2018-08-13T02:29:45.710Z,18.48
2018-08-13T02:34:40.996Z,18.48
2018-08-13T02:39:35.624Z,18.50
2018-08-13T02:44:30.314Z,18.58
2018-08-13T02:49:24.923Z,18.71
2018-08-13T02:54:19.523Z,18.53
2018-08-13T02:59:14.200Z,18.31
2018-08-13T03:04:08.890Z,18.44
2018-08-13T03:09:05.472Z,18.45
2018-08-13T03:14:00.140Z,18.57
2018-08-13T03:18:55.440Z,18.79
2018-08-13T03:23:50.143Z,18.72
2018-08-13T03:28:44.791Z,18.74
2018-08-13T03:33:40.234Z,18.55
2018-08-13T03:38:34.956Z,18.37
2018-08-13T03:43:29.564Z,18.50
2018-08-13T03:48:24.183Z,18.60
2018-08-13T03:53:18.800Z,18.48
2018-08-13T03:58:13.399Z,18.48
2018-08-13T04:03:08.527Z,18.29
2018-08-13T04:08:03.227Z,18.26
2018-08-13T04:12:57.990Z,18.03
2018-08-13T04:17:52.515Z,18.05
2018-08-13T04:22:47.167Z,18.37
2018-08-13T04:27:42.146Z,18.50
2018-08-13T04:32:36.908Z,18.52
2018-08-13T04:37:32.250Z,18.65
2018-08-13T04:42:26.960Z,18.74
2018-08-13T04:47:21.539Z,18.81
2018-08-13T04:52:16.200Z,19.10
2018-08-13T04:57:10.791Z,19.80
2018-08-13T05:02:05.500Z,19.57
2018-08-13T05:07:00.139Z,19.62
2018-08-13T05:11:54.826Z,19.77
2018-08-13T05:16:49.463Z,20.47
2018-08-13T05:21:44.055Z,20.70
2018-08-13T05:26:38.732Z,20.26
2018-08-13T05:31:33.654Z,20.01
2018-08-13T05:36:28.284Z,19.95
2018-08-13T05:41:22.910Z,20.14
2018-08-13T05:46:17.552Z,20.05
2018-08-13T05:51:12.204Z,19.92
2018-08-13T05:56:06.876Z,20.01
2018-08-13T06:01:01.580Z,20.18
2018-08-13T06:05:56.234Z,20.20
2018-08-13T06:10:50.840Z,20.01
2018-08-13T06:15:45.486Z,20.04
2018-08-13T06:20:40.136Z,20.25
2018-08-13T06:25:34.710Z,20.26
2018-08-13T06:30:29.370Z,20.11
2018-08-13T06:35:23.975Z,20.01
2018-08-13T06:40:18.760Z,20.31
2018-08-13T06:45:13.432Z,20.55
2018-08-13T06:50:10.830Z,20.99
2018-08-13T06:55:05.943Z,21.56
2018-08-13T07:00:00.599Z,22.24
2018-08-13T07:04:55.214Z,22.87
2018-08-13T07:09:49.868Z,23.22
2018-08-13T07:14:44.549Z,23.39
2018-08-13T07:19:39.224Z,23.59
2018-08-13T07:24:33.832Z,23.60
2018-08-13T07:29:28.426Z,23.17
2018-08-13T07:34:23.090Z,23.00
2018-08-13T07:39:17.865Z,24.01
2018-08-13T07:44:12.512Z,24.55
2018-08-13T07:49:07.221Z,25.20
2018-08-13T07:54:01.896Z,25.56
2018-08-13T07:58:56.679Z,25.91
2018-08-13T08:03:51.480Z,25.98
2018-08-13T08:08:46.199Z,26.22
2018-08-13T08:13:40.874Z,26.21
2018-08-13T08:18:35.668Z,26.43
2018-08-13T08:23:30.416Z,26.68
2018-08-13T08:28:25.057Z,26.62
2018-08-13T08:33:19.785Z,26.25
2018-08-13T08:38:14.400Z,25.21
2018-08-13T08:43:10.721Z,25.21
2018-08-13T08:48:06.847Z,26.36
2018-08-13T08:53:04.575Z,27.15
2018-08-13T08:57:59.236Z,27.28
2018-08-13T09:02:54.008Z,27.49
2018-08-13T09:07:48.680Z,26.77
2018-08-13T09:12:43.354Z,26.20
2018-08-13T09:17:55.156Z,26.31
2018-08-13T09:27:09.297Z,26.97
2018-08-13T09:32:30.216Z,27.57
2018-08-13T09:37:24.936Z,28.20
2018-08-13T09:42:19.558Z,27.91
2018-08-13T09:47:14.172Z,27.35
2018-08-13T09:52:08.819Z,26.63
2018-08-13T09:57:03.503Z,26.11
2018-08-13T10:01:58.160Z,26.15
2018-08-13T10:06:52.824Z,25.92
2018-08-13T10:11:47.431Z,25.48
2018-08-13T10:16:42.168Z,25.15
2018-08-13T10:21:36.773Z,25.48
2018-08-13T10:26:31.494Z,25.24
2018-08-13T10:31:26.244Z,25.23
2018-08-13T10:36:22.203Z,24.87
2018-08-13T10:41:16.812Z,24.68
2018-08-13T10:46:11.440Z,24.74
2018-08-13T10:51:06.099Z,24.48
2018-08-13T10:56:00.813Z,24.70
2018-08-13T11:00:55.488Z,24.55
2018-08-13T11:05:50.202Z,24.65
2018-08-13T11:10:44.875Z,24.54
2018-08-13T11:15:39.511Z,24.46
2018-08-13T11:20:34.215Z,24.22
2018-08-13T11:25:29.023Z,23.16
2018-08-13T11:30:23.659Z,22.71
2018-08-13T11:35:18.430Z,22.73
2018-08-13T11:40:14.891Z,22.41
2018-08-13T11:45:10.103Z,22.08
2018-08-13T11:50:08.564Z,21.78
2018-08-13T11:55:03.624Z,22.09
2018-08-13T11:59:58.647Z,22.77
2018-08-13T12:04:53.801Z,23.00
2018-08-13T12:09:48.818Z,22.89
2018-08-13T12:14:43.881Z,22.79
2018-08-13T12:19:38.881Z,22.58
2018-08-13T12:24:33.780Z,22.47
2018-08-13T12:29:28.637Z,22.48
2018-08-13T12:34:23.662Z,22.40
2018-08-13T12:39:18.932Z,21.70
2018-08-13T12:44:14.503Z,21.14
2018-08-13T12:49:09.572Z,20.94
2018-08-13T12:54:04.591Z,20.84
2018-08-13T12:58:59.719Z,20.65
2018-08-13T13:03:55.544Z,20.72
2018-08-13T13:08:50.436Z,20.68
2018-08-13T13:13:45.313Z,20.84
2018-08-13T13:18:40.297Z,20.88
2018-08-13T13:23:35.334Z,21.13
2018-08-13T13:28:30.865Z,21.27
2018-08-13T13:33:26.123Z,21.70
2018-08-13T13:38:21.349Z,22.05
2018-08-13T13:43:16.762Z,22.16
2018-08-13T13:48:12.531Z,22.47
2018-08-13T13:53:08.595Z,22.61
2018-08-13T13:58:07.964Z,22.89
2018-08-13T14:08:25.538Z,23.26
2018-08-13T14:13:20.850Z,23.08
2018-08-13T14:18:16.164Z,23.11
2018-08-13T14:28:19.140Z,23.37
2018-08-13T14:33:14.511Z,23.48
2018-08-13T14:38:09.887Z,23.27
2018-08-13T14:43:05.100Z,23.03
2018-08-13T14:48:00.402Z,22.67
2018-08-13T14:53:00.483Z,22.63
2018-08-13T14:58:12.224Z,22.70
2018-08-13T15:19:21.728Z,23.36
2018-08-13T15:24:16.730Z,23.58
2018-08-13T15:29:11.656Z,23.90
2018-08-13T15:34:06.596Z,23.99
2018-08-13T15:39:01.500Z,23.83
2018-08-13T15:43:56.491Z,23.45
2018-08-13T15:48:51.601Z,23.22
2018-08-13T15:53:46.631Z,22.81
2018-08-13T15:58:41.323Z,22.56
2018-08-13T16:03:36.556Z,22.45
2018-08-13T16:08:31.434Z,22.38
2018-08-13T16:13:26.583Z,22.60
2018-08-13T16:18:21.565Z,22.62
2018-08-13T16:23:16.498Z,22.69
2018-08-13T16:28:11.413Z,22.98
2018-08-13T16:33:06.629Z,23.37
2018-08-13T16:38:01.598Z,23.55
2018-08-13T16:42:56.520Z,23.55
2018-08-13T16:47:51.687Z,23.67
2018-08-13T16:52:47.609Z,23.73
2018-08-13T16:57:43.196Z,23.73
2018-08-13T17:02:38.196Z,23.64
2018-08-13T17:07:33.069Z,23.55
2018-08-13T17:12:27.948Z,23.34
2018-08-13T17:17:22.648Z,23.14
2018-08-13T17:22:17.431Z,22.96
2018-08-13T17:27:12.162Z,22.66
2018-08-13T17:32:06.917Z,22.56
2018-08-13T17:37:01.692Z,22.51
2018-08-13T17:41:56.422Z,22.32
2018-08-13T17:46:53.371Z,22.21
2018-08-13T17:51:48.250Z,22.09
2018-08-13T17:56:43.020Z,21.93
2018-08-13T18:01:37.720Z,21.80
2018-08-13T18:06:32.539Z,21.82
2018-08-13T18:11:27.186Z,21.88
2018-08-13T18:16:21.859Z,22.00
2018-08-13T18:21:16.793Z,21.67
2018-08-13T18:26:11.601Z,20.35
2018-08-13T18:31:06.661Z,19.61
2018-08-13T18:36:01.435Z,19.36
2018-08-13T18:40:56.434Z,19.34
2018-08-13T18:45:51.564Z,19.32
2018-08-13T18:50:46.330Z,19.29
2018-08-13T18:55:41.175Z,19.32
2018-08-13T19:00:35.957Z,19.31
2018-08-13T19:05:31.121Z,19.27
2018-08-13T19:10:27.683Z,19.11
2018-08-13T19:15:25.873Z,19.24
2018-08-13T19:20:20.743Z,19.07
2018-08-13T19:25:19.074Z,19.16
2018-08-13T19:30:16.192Z,19.26
2018-08-13T19:35:11.101Z,19.29
2018-08-13T19:40:12.816Z,19.22
2018-08-13T19:45:08.790Z,19.06
2018-08-13T19:50:03.877Z,19.17
2018-08-13T19:54:58.501Z,19.07
2018-08-13T19:59:53.318Z,18.64
2018-08-13T20:04:48.065Z,18.73
2018-08-13T20:09:42.924Z,18.98
2018-08-13T20:14:37.678Z,18.83
2018-08-13T20:19:32.459Z,18.95
2018-08-13T20:24:27.211Z,18.74
2018-08-13T20:29:21.963Z,18.57
2018-08-13T20:34:16.728Z,18.60
2018-08-13T20:39:15.014Z,18.76
2018-08-13T20:44:10.598Z,18.71
2018-08-13T20:49:05.789Z,18.79
2018-08-13T20:54:00.586Z,18.97
2018-08-13T20:58:55.352Z,18.74
2018-08-13T21:03:50.151Z,18.61
2018-08-13T21:08:45.024Z,18.48
2018-08-13T21:13:39.880Z,18.43
2018-08-13T21:18:34.689Z,18.28
2018-08-13T21:23:29.602Z,18.09
2018-08-13T21:28:24.613Z,17.94
2018-08-13T21:33:19.840Z,18.11
2018-08-13T21:38:16.598Z,18.14
2018-08-13T21:43:12.280Z,18.10
2018-08-13T21:48:08.396Z,18.34
2018-08-13T21:53:03.544Z,18.05
2018-08-13T21:57:58.581Z,18.10
2018-08-13T22:02:53.955Z,17.94
2018-08-13T22:07:48.812Z,18.03
2018-08-13T22:12:43.800Z,18.00
2018-08-13T22:17:38.860Z,17.97
2018-08-13T22:22:33.776Z,18.04
2018-08-13T22:27:28.649Z,18.25
2018-08-13T22:32:23.554Z,18.35
2018-08-13T22:37:18.357Z,18.06
2018-08-13T22:42:13.197Z,18.20
2018-08-13T22:47:07.954Z,18.26
2018-08-13T22:52:02.909Z,18.30
2018-08-13T22:56:57.723Z,18.30
2018-08-13T23:01:52.537Z,18.19
2018-08-13T23:06:47.363Z,18.23
2018-08-13T23:11:42.255Z,18.15
2018-08-13T23:16:37.152Z,18.30
2018-08-13T23:21:32.118Z,18.27
2018-08-13T23:26:26.844Z,18.32
2018-08-13T23:31:21.631Z,18.39
2018-08-13T23:36:16.344Z,18.40
2018-08-13T23:41:11.068Z,18.46
2018-08-13T23:46:05.805Z,18.47
2018-08-13T23:51:00.518Z,18.41
2018-08-13T23:55:55.249Z,18.41
